Time;durP1;ratioP1;P1;durP2;ratioP2;P2;SDS_P1;SDS_P2;PMS_P1;PMS_P2;Temp;Humidity;BMP_temperature;BMP_pressure;BME280_temperature;BME280_humidity;BME280_pressure;Samples;Min_cycle;Max_cycle;Signal;HPM_P1;HPM_P2
2024/03/16 00:00:40;;;;;;;6.03;1.40;;;;;;;18.89;51.25;100927.47;4967767;28;20483;-72
2024/03/16 00:03:06;;;;;;;8.15;2.10;;;;;;;18.85;51.02;100920.78;4965738;28;20038;-72
2024/03/16 00:05:31;;;;;;;4.93;1.70;;;;;;;18.74;51.26;100905.81;4966638;28;20031;-71
2024/03/16 00:07:57;;;;;;;4.13;1.30;;;;;;;18.89;50.95;100938.03;4966511;28;20034;-71
2024/03/16 00:10:22;;;;;;;5.20;1.60;;;;;;;18.79;51.01;100922.09;4967793;28;20030;-70
2024/03/16 00:12:48;;;;;;;5.03;1.60;;;;;;;18.92;50.89;100943.06;4966629;28;20379;-70
2024/03/16 00:15:13;;;;;;;3.75;1.30;;;;;;;18.73;50.78;100916.50;4967510;28;20426;-71
2024/03/16 00:17:38;;;;;;;4.85;1.45;;;;;;;18.84;50.92;100929.66;4967465;28;20030;-71
2024/03/16 00:20:10;;;;;;;4.65;1.20;;;;;;;18.80;50.79;100929.06;4967358;28;20123;-71
2024/03/16 00:22:37;;;;;;;6.32;1.38;;;;;;;18.92;50.77;100950.16;4967450;28;20038;-71
2024/03/16 00:25:02;;;;;;;4.68;1.35;;;;;;;18.90;50.96;100954.72;4967170;28;20064;-71
2024/03/16 00:27:28;;;;;;;5.07;1.50;;;;;;;18.77;50.92;100939.88;4967249;28;20356;-71
2024/03/16 00:29:53;;;;;;;5.53;1.30;;;;;;;18.49;50.99;100896.44;4967384;28;20081;-71
2024/03/16 00:32:18;;;;;;;5.03;1.38;;;;;;;18.77;50.68;100945.16;4967220;28;20042;-70
2024/03/16 00:34:44;;;;;;;5.10;1.60;;;;;;;18.75;50.77;100944.41;4967104;28;20070;-71
2024/03/16 00:37:09;;;;;;;5.38;1.30;;;;;;;18.83;50.84;100965.78;4967632;28;20043;-70
2024/03/16 00:39:35;;;;;;;4.30;1.30;;;;;;;18.82;50.66;100964.09;4967256;28;20030;-71
2024/03/16 00:42:00;;;;;;;4.15;1.30;;;;;;;18.81;50.70;100967.69;4967199;28;20031;-72
2024/03/16 00:44:26;;;;;;;3.83;1.30;;;;;;;18.72;50.45;100946.47;4967307;28;20038;-70
2024/03/16 00:46:52;;;;;;;5.40;1.27;;;;;;;18.82;50.42;100964.09;4967141;28;20290;-70
2024/03/16 00:49:17;;;;;;;5.28;1.48;;;;;;;18.80;50.71;100959.88;4967470;28;20027;-70
2024/03/16 00:51:42;;;;;;;5.13;1.45;;;;;;;18.78;50.63;100960.00;4967117;28;20090;-71
2024/03/16 00:54:11;;;;;;;4.75;1.25;;;;;;;18.75;50.58;100952.34;4967367;28;20029;-71
2024/03/16 00:56:37;;;;;;;4.63;1.40;;;;;;;18.79;50.54;100958.22;4967016;28;20543;-71
2024/03/16 00:59:02;;;;;;;5.55;1.35;;;;;;;18.79;50.56;100963.50;4967531;28;20118;-72
2024/03/16 01:01:29;;;;;;;3.15;0.98;;;;;;;18.75;50.65;100967.34;4966930;28;20108;-71
2024/03/16 01:03:54;;;;;;;5.47;1.48;;;;;;;18.81;50.66;100966.84;4966056;28;20039;-72
2024/03/16 01:06:20;;;;;;;5.85;1.63;;;;;;;18.64;50.72;100949.75;4967255;28;20038;-72
2024/03/16 01:08:45;;;;;;;5.45;1.48;;;;;;;18.77;50.60;100974.19;4967409;28;20031;-71
2024/03/16 01:11:11;;;;;;;5.78;1.70;;;;;;;18.74;50.69;100963.88;4967046;28;20027;-71
2024/03/16 01:13:36;;;;;;;4.80;1.50;;;;;;;18.69;50.79;100963.41;4966919;28;20043;-70
2024/03/16 01:16:01;;;;;;;4.70;1.30;;;;;;;18.62;50.59;100947.22;4966877;28;20050;-71
2024/03/16 01:18:27;;;;;;;6.32;1.70;;;;;;;18.73;50.73;100970.13;4967140;28;20085;-71
2024/03/16 01:20:52;;;;;;;5.20;1.40;;;;;;;18.74;50.43;100966.53;4965742;28;20066;-71
2024/03/16 01:23:17;;;;;;;4.30;1.23;;;;;;;18.61;50.59;100955.28;4965536;28;20034;-71
2024/03/16 01:25:43;;;;;;;5.60;1.77;;;;;;;18.72;50.65;100978.16;4966910;28;20050;-71
2024/03/16 01:28:08;;;;;;;4.18;1.38;;;;;;;18.73;50.66;100979.84;4967360;28;20050;-71
2024/03/16 01:30:33;;;;;;;6.63;1.45;;;;;;;18.64;50.52;100971.72;4967234;28;20045;-70
2024/03/16 01:32:58;;;;;;;5.72;1.65;;;;;;;18.70;50.55;100982.75;4967246;28;20035;-71
2024/03/16 01:35:24;;;;;;;5.68;1.35;;;;;;;18.59;50.45;100976.50;4967356;28;20458;-69
2024/03/16 01:37:50;;;;;;;5.00;1.60;;;;;;;18.72;50.38;100994.84;4967135;28;20525;-71
2024/03/16 01:40:16;;;;;;;5.32;1.30;;;;;;;18.68;50.59;100986.34;4966952;28;20057;-71
2024/03/16 01:42:41;;;;;;;6.40;1.60;;;;;;;18.70;50.55;100996.78;4966936;28;20451;-71
2024/03/16 01:45:12;;;;;;;4.72;1.38;;;;;;;18.59;50.39;100978.31;4966691;28;20042;-70
2024/03/16 01:47:38;;;;;;;5.35;1.23;;;;;;;18.61;50.50;100989.59;4966627;28;20019;-71
2024/03/16 01:50:04;;;;;;;5.25;1.35;;;;;;;18.70;50.57;101002.06;4966856;28;20034;-70
2024/03/16 01:52:30;;;;;;;6.22;1.25;;;;;;;18.56;50.60;100983.84;4967220;28;20252;-71
2024/03/16 01:54:55;;;;;;;5.65;1.42;;;;;;;18.58;50.59;100989.84;4970470;28;20364;-72
2024/03/16 01:57:20;;;;;;;5.53;1.50;;;;;;;18.56;50.47;100987.31;4970053;28;20039;-70
2024/03/16 01:59:45;;;;;;;4.00;1.20;;;;;;;18.54;50.44;100988.44;4970272;28;20023;-71
2024/03/16 02:02:38;;;;;;;7.22;1.70;;;;;;;18.66;50.51;101008.56;4967791;28;20043;-72
2024/03/16 02:05:04;;;;;;;5.45;1.38;;;;;;;18.62;50.78;101005.31;4968711;28;20054;-71
2024/03/16 02:07:30;;;;;;;4.65;1.50;;;;;;;18.62;50.69;101007.94;4970186;28;20089;-72
2024/03/16 02:09:58;;;;;;;4.80;1.50;;;;;;;18.55;50.47;101000.63;4970038;28;20089;-71
2024/03/16 02:12:23;;;;;;;3.65;1.13;;;;;;;18.53;50.69;100998.13;4968723;28;20035;-72
2024/03/16 02:14:49;;;;;;;4.38;1.20;;;;;;;18.51;50.54;100996.59;4969910;28;20026;-70
2024/03/16 02:17:14;;;;;;;4.35;1.17;;;;;;;18.62;50.60;101018.50;4970418;28;20026;-72
2024/03/16 02:19:39;;;;;;;5.57;1.77;;;;;;;18.52;50.43;101009.66;4970142;28;20122;-71
2024/03/16 02:22:05;;;;;;;5.93;1.25;;;;;;;18.52;50.35;101008.81;4969513;28;20029;-71
2024/03/16 02:24:34;;;;;;;5.60;1.83;;;;;;;18.60;50.53;101027.53;4969231;28;20046;-70
2024/03/16 02:27:00;;;;;;;3.47;1.10;;;;;;;18.54;50.63;101020.94;4969419;28;20127;-70
2024/03/16 02:29:27;;;;;;;4.97;1.35;;;;;;;18.26;50.62;100980.06;4969593;28;20110;-71
2024/03/16 02:31:53;;;;;;;5.32;1.40;;;;;;;18.57;50.56;101028.59;4969670;28;20042;-71
2024/03/16 02:34:18;;;;;;;5.45;1.70;;;;;;;18.59;50.53;101028.47;4969990;28;20034;-70
2024/03/16 02:36:44;;;;;;;4.80;1.35;;;;;;;18.51;50.53;101020.34;4969675;28;20027;-72
2024/03/16 02:39:11;;;;;;;5.45;1.40;;;;;;;18.47;50.49;101020.59;4969708;28;20035;-71
2024/03/16 02:41:36;;;;;;;3.72;1.55;;;;;;;18.58;50.52;101040.84;4969860;28;20023;-70
2024/03/16 02:44:02;;;;;;;4.72;1.85;;;;;;;18.49;50.64;101029.22;4969392;28;20112;-70
2024/03/16 02:46:28;;;;;;;3.63;1.20;;;;;;;18.47;50.45;101028.50;4969121;28;20037;-72
2024/03/16 02:48:53;;;;;;;4.05;1.40;;;;;;;18.60;50.59;101056.56;4969405;28;20371;-71
2024/03/16 02:51:18;;;;;;;4.30;1.65;;;;;;;18.47;50.72;101041.69;4969224;28;21181;-70
2024/03/16 02:53:44;;;;;;;6.38;1.60;;;;;;;18.51;50.63;101054.66;4969066;28;20114;-71
2024/03/16 02:56:09;;;;;;;5.18;1.65;;;;;;;18.57;50.55;101067.34;4969466;28;20031;-71
2024/03/16 02:58:34;;;;;;;5.60;1.50;;;;;;;18.51;50.54;101070.47;4969156;28;20494;-72
2024/03/16 03:00:59;;;;;;;4.75;1.58;;;;;;;18.55;50.67;101085.97;4969158;28;20085;-71
2024/03/16 03:03:25;;;;;;;5.40;1.55;;;;;;;18.56;50.54;101092.06;4968215;28;20047;-72
2024/03/16 03:05:52;;;;;;;5.15;1.60;;;;;;;18.55;50.86;101101.78;4968013;28;20058;-72
2024/03/16 03:08:17;;;;;;;5.35;1.75;;;;;;;18.52;50.54;101087.97;4969234;28;20027;-70
2024/03/16 03:10:43;;;;;;;4.15;1.67;;;;;;;18.54;50.58;101096.63;4969104;28;20034;-72
2024/03/16 03:13:08;;;;;;;4.68;1.70;;;;;;;18.45;50.40;101092.91;4969099;28;20026;-71
2024/03/16 03:15:35;;;;;;;5.78;1.90;;;;;;;18.43;50.61;101093.03;4967735;28;20025;-71
2024/03/16 03:18:00;;;;;;;6.03;1.80;;;;;;;18.45;50.37;101103.47;4969152;28;20018;-70
2024/03/16 03:20:26;;;;;;;5.85;2.00;;;;;;;18.52;50.49;101124.94;4969155;28;20042;-70
2024/03/16 03:22:51;;;;;;;6.50;2.08;;;;;;;18.51;50.67;101132.00;4968092;28;20089;-71
2024/03/16 03:25:17;;;;;;;6.13;2.10;;;;;;;18.50;50.40;101127.72;4966689;28;20043;-71
2024/03/16 03:27:42;;;;;;;5.65;1.80;;;;;;;18.40;50.31;101124.94;4968226;28;20293;-70
2024/03/16 03:30:07;;;;;;;4.97;1.70;;;;;;;18.52;50.17;101153.97;4968464;28;20427;-71
2024/03/16 03:32:33;;;;;;;4.55;1.67;;;;;;;18.40;50.31;101132.03;4968435;28;20035;-72
2024/03/16 03:34:58;;;;;;;4.30;1.50;;;;;;;18.39;50.24;101139.09;4968856;28;20106;-71
2024/03/16 03:37:23;;;;;;;4.88;1.65;;;;;;;18.48;50.27;101158.66;4968446;28;20042;-71
2024/03/16 03:39:52;;;;;;;5.43;1.65;;;;;;;18.44;50.26;101162.50;4968341;28;20034;-71
2024/03/16 03:42:25;;;;;;;5.88;1.77;;;;;;;18.43;50.05;101153.72;4968611;28;20037;-72
2024/03/16 03:45:10;;;;;;;5.78;1.38;;;;;;;18.40;50.24;101153.13;4968470;28;20038;-71
2024/03/16 03:47:49;;;;;;;5.40;1.55;;;;;;;18.40;50.18;101166.31;4968798;28;20073;-72
2024/03/16 03:50:23;;;;;;;5.65;1.65;;;;;;;18.45;50.15;101172.94;4967968;28;20023;-70
2024/03/16 03:52:48;;;;;;;4.57;1.65;;;;;;;18.37;49.96;101171.84;4968590;28;20110;-70
2024/03/16 03:55:13;;;;;;;4.15;1.50;;;;;;;18.45;50.00;101188.78;4968367;28;20522;-70
2024/03/16 03:57:39;;;;;;;4.68;1.55;;;;;;;18.42;49.73;101191.66;4967938;28;20022;-72
2024/03/16 04:00:08;;;;;;;4.70;1.50;;;;;;;18.42;49.92;101185.50;4968248;28;20030;-70
2024/03/16 04:02:33;;;;;;;4.68;1.70;;;;;;;18.31;49.81;101174.00;4967320;28;20019;-70
2024/03/16 04:04:58;;;;;;;5.35;1.40;;;;;;;18.34;49.85;101182.63;4967638;28;20037;-70
2024/03/16 04:07:24;;;;;;;4.43;1.45;;;;;;;18.44;49.81;101202.91;4967774;28;20141;-71
2024/03/16 04:09:49;;;;;;;5.43;1.73;;;;;;;18.36;49.83;101201.81;4968133;28;20030;-72
2024/03/16 04:12:14;;;;;;;3.70;1.50;;;;;;;18.43;49.59;101217.06;4967736;28;20030;-70
2024/03/16 04:14:40;;;;;;;3.45;1.30;;;;;;;18.34;49.86;101203.72;4967920;28;20081;-72
2024/03/16 04:17:05;;;;;;;4.97;1.30;;;;;;;18.41;49.70;101218.97;4967956;28;20463;-71
2024/03/16 04:19:30;;;;;;;3.25;1.17;;;;;;;18.32;49.93;101219.69;4967819;28;20117;-70
2024/03/16 04:21:55;;;;;;;3.45;1.50;;;;;;;18.39;49.55;101222.69;4967951;28;20479;-72
2024/03/16 04:24:21;;;;;;;4.28;1.30;;;;;;;18.31;49.64;101213.56;4967615;28;20034;-71
2024/03/16 04:26:46;;;;;;;3.40;1.23;;;;;;;18.34;49.61;101232.75;4967877;28;20051;-70
2024/03/16 04:29:11;;;;;;;3.85;1.20;;;;;;;18.38;49.76;101239.50;4967769;28;20117;-71
2024/03/16 04:31:37;;;;;;;3.85;1.40;;;;;;;18.31;49.59;101239.97;4967490;28;20027;-70
2024/03/16 04:34:03;;;;;;;6.20;1.80;;;;;;;18.38;49.62;101256.16;4968059;28;20451;-71
2024/03/16 04:36:28;;;;;;;4.28;1.40;;;;;;;18.28;49.48;101248.09;4967912;28;20031;-70
2024/03/16 04:38:53;;;;;;;5.63;1.42;;;;;;;18.40;49.08;101274.50;4967461;28;20077;-72
2024/03/16 04:41:19;;;;;;;4.55;1.42;;;;;;;18.31;49.60;101265.50;4967764;28;20031;-71
2024/03/16 04:43:46;;;;;;;4.43;1.30;;;;;;;18.27;49.44;101272.78;4967446;28;20031;-70
2024/03/16 04:46:13;;;;;;;4.10;1.35;;;;;;;18.26;49.49;101270.28;4967446;28;20086;-71
2024/03/16 04:48:38;;;;;;;4.60;1.30;;;;;;;18.31;49.54;101279.53;4967706;28;20062;-71
2024/03/16 04:51:04;;;;;;;3.88;1.35;;;;;;;18.37;49.34;101299.31;4967345;28;20082;-70
2024/03/16 04:53:29;;;;;;;3.55;1.13;;;;;;;18.35;49.29;101309.16;4967453;28;20423;-70
2024/03/16 04:55:54;;;;;;;4.07;1.15;;;;;;;18.26;49.61;101294.88;4967132;28;20114;-71
2024/03/16 04:58:20;;;;;;;4.38;1.50;;;;;;;18.33;49.16;101304.97;4967452;28;20420;-71
2024/03/16 05:00:45;;;;;;;3.70;1.20;;;;;;;18.36;49.45;101320.53;4967078;28;20050;-70
2024/03/16 05:03:11;;;;;;;3.88;1.30;;;;;;;18.23;49.25;101297.75;4966267;28;20062;-70
2024/03/16 05:05:36;;;;;;;2.00;0.82;;;;;;;18.29;49.40;101312.25;4967515;28;20085;-71
2024/03/16 05:08:01;;;;;;;3.17;1.00;;;;;;;18.34;49.38;101328.59;4967425;28;20364;-70
2024/03/16 05:10:27;;;;;;;2.60;0.90;;;;;;;18.25;49.24;101319.56;4966701;28;20360;-71
2024/03/16 05:12:52;;;;;;;3.15;0.95;;;;;;;18.30;49.19;101324.50;4967563;28;20427;-70
2024/03/16 05:15:17;;;;;;;3.20;0.80;;;;;;;18.31;49.23;101339.38;4967168;28;20522;-71
2024/03/16 05:17:43;;;;;;;3.63;1.02;;;;;;;18.24;49.13;101330.22;4966820;28;20113;-71
2024/03/16 05:20:09;;;;;;;3.28;1.02;;;;;;;18.23;49.10;101339.94;4967210;28;20106;-70
2024/03/16 05:22:35;;;;;;;2.40;0.90;;;;;;;18.31;49.15;101369.25;4967044;28;20034;-70
2024/03/16 05:25:00;;;;;;;3.78;0.90;;;;;;;18.29;49.21;101360.63;4967112;28;20034;-70
2024/03/16 05:27:25;;;;;;;4.05;1.00;;;;;;;18.31;48.98;101378.97;4966873;28;20054;-71
2024/03/16 05:29:52;;;;;;;3.83;1.00;;;;;;;18.15;48.94;101354.66;4970587;28;20455;-71
2024/03/16 05:32:17;;;;;;;3.22;0.88;;;;;;;18.28;49.03;101380.03;4970392;28;20083;-70
2024/03/16 05:34:43;;;;;;;3.55;0.80;;;;;;;18.31;48.91;101385.06;4970454;28;20352;-71
2024/03/16 05:37:08;;;;;;;3.10;0.80;;;;;;;18.20;48.93;101376.25;4970147;28;20029;-70
2024/03/16 05:39:33;;;;;;;1.75;0.65;;;;;;;18.29;49.11;101394.91;4970621;28;20444;-71
2024/03/16 05:41:58;;;;;;;2.13;0.80;;;;;;;18.22;48.73;101384.91;4970352;28;20050;-71
2024/03/16 05:44:24;;;;;;;2.65;0.75;;;;;;;18.29;48.84;101404.59;4970296;28;20076;-71
2024/03/16 05:46:49;;;;;;;2.78;0.80;;;;;;;18.29;49.34;101412.53;4970243;28;20034;-71
2024/03/16 05:49:15;;;;;;;2.78;0.90;;;;;;;18.24;48.90;101407.56;4970386;28;20042;-70
2024/03/16 05:51:40;;;;;;;1.63;0.70;;;;;;;18.28;48.86;101413.50;4969642;28;20038;-70
2024/03/16 05:54:06;;;;;;;3.17;0.80;;;;;;;18.26;48.64;101428.56;4969986;28;22075;-71
2024/03/16 05:56:32;;;;;;;2.55;0.82;;;;;;;18.26;48.93;101442.63;4969638;28;20216;-71
2024/03/16 05:58:58;;;;;;;3.00;0.77;;;;;;;18.27;48.72;101451.38;4970139;28;20026;-71
2024/03/16 06:01:24;;;;;;;2.97;0.88;;;;;;;18.23;48.76;101448.13;4968065;28;20063;-70
2024/03/16 06:03:50;;;;;;;2.35;0.70;;;;;;;18.24;48.84;101454.22;4967549;28;20435;-71
2024/03/16 06:06:15;;;;;;;1.88;0.70;;;;;;;18.18;48.77;101452.03;4968663;28;20173;-71
2024/03/16 06:08:40;;;;;;;1.63;0.60;;;;;;;18.13;48.69;101449.72;4969750;28;20053;-71
2024/03/16 06:11:06;;;;;;;2.00;0.70;;;;;;;18.22;48.48;101469.34;4969639;28;20345;-70
2024/03/16 06:13:31;;;;;;;3.50;0.80;;;;;;;18.25;48.67;101475.22;4968121;28;20029;-71
2024/03/16 06:15:56;;;;;;;2.83;0.80;;;;;;;18.22;48.60;101485.16;4969459;28;20253;-70
2024/03/16 06:18:21;;;;;;;2.10;0.73;;;;;;;18.11;48.53;101478.84;4969542;28;20038;-71
2024/03/16 06:20:48;;;;;;;2.55;0.60;;;;;;;18.11;48.40;101480.66;4969682;28;20022;-71
2024/03/16 06:23:13;;;;;;;2.40;0.65;;;;;;;18.13;48.71;101498.06;4968230;28;20109;-71
2024/03/16 06:25:49;;;;;;;2.55;0.80;;;;;;;18.20;48.77;101502.88;4969421;28;20062;-70
2024/03/16 06:28:21;;;;;;;2.13;0.50;;;;;;;18.10;48.54;101498.28;4969385;28;20177;-71
2024/03/16 06:30:49;;;;;;;2.95;1.00;;;;;;;18.23;48.61;101523.78;4969695;28;20026;-71
2024/03/16 06:33:27;;;;;;;3.03;0.70;;;;;;;18.26;48.63;101537.63;4969633;28;20089;-71
2024/03/16 06:35:53;;;;;;;1.90;0.60;;;;;;;18.24;48.74;101536.84;4970179;28;20035;-71
2024/03/16 06:38:18;;;;;;;1.67;0.60;;;;;;;18.24;48.97;101536.84;4970234;28;20034;-70
2024/03/16 06:40:44;;;;;;;1.92;0.60;;;;;;;18.18;49.09;101528.53;4970945;28;20034;-70
2024/03/16 06:43:09;;;;;;;2.42;0.70;;;;;;;18.19;49.15;101527.59;4971081;28;20097;-71
2024/03/16 06:45:34;;;;;;;3.03;0.60;;;;;;;18.24;49.16;101544.78;4970893;28;20130;-71
2024/03/16 06:48:00;;;;;;;1.80;0.50;;;;;;;18.30;49.04;101556.69;4972856;28;20031;-71
2024/03/16 06:50:25;;;;;;;1.65;0.80;;;;;;;18.20;49.14;101537.19;4973182;28;20033;-70
2024/03/16 06:52:50;;;;;;;1.40;0.53;;;;;;;18.25;49.10;101548.28;4972443;28;20417;-70
2024/03/16 06:55:17;;;;;;;1.33;0.57;;;;;;;18.33;49.23;101567.03;4971968;28;20291;-71
2024/03/16 06:57:43;;;;;;;2.42;0.60;;;;;;;18.38;49.01;101578.09;4971794;28;20370;-70
2024/03/16 07:00:09;;;;;;;1.70;0.60;;;;;;;18.36;49.26;101590.56;4972816;28;20023;-71
2024/03/16 07:02:34;;;;;;;1.65;0.57;;;;;;;18.38;49.22;101591.31;4972035;28;20023;-72
2024/03/16 07:05:00;;;;;;;0.60;0.32;;;;;;;18.40;49.15;101609.66;4973470;28;20031;-71
2024/03/16 07:07:26;;;;;;;1.75;0.60;;;;;;;18.40;49.05;101618.41;4975862;28;20121;-72
2024/03/16 07:09:52;;;;;;;3.28;0.60;;;;;;;18.44;49.22;101624.34;4976236;28;20039;-72
2024/03/16 07:12:17;;;;;;;2.42;0.65;;;;;;;18.37;49.07;101629.19;4975015;28;20522;-71
2024/03/16 07:14:43;;;;;;;1.92;0.68;;;;;;;18.44;49.23;101645.47;4976281;28;20035;-72
2024/03/16 07:17:08;;;;;;;2.38;0.60;;;;;;;18.37;49.03;101631.00;4975657;28;20037;-72
2024/03/16 07:19:34;;;;;;;1.95;0.50;;;;;;;18.43;48.87;101647.25;4975711;28;20435;-71
2024/03/16 07:22:00;;;;;;;1.42;0.50;;;;;;;18.36;49.09;101638.06;4974452;28;20031;-70
2024/03/16 07:24:25;;;;;;;2.85;0.60;;;;;;;18.50;48.83;101666.16;4975368;28;20459;-70
2024/03/16 07:26:51;;;;;;;2.33;0.50;;;;;;;18.51;49.25;101675.75;4975971;28;20117;-72
2024/03/16 07:29:16;;;;;;;3.30;0.70;;;;;;;18.48;49.04;101673.31;4969916;28;20030;-72
2024/03/16 07:31:42;;;;;;;1.48;0.50;;;;;;;18.49;48.90;101680.28;4968910;28;20027;-70
2024/03/16 07:34:08;;;;;;;1.85;0.70;;;;;;;18.48;48.73;101674.19;4968754;28;20415;-70
2024/03/16 07:36:33;;;;;;;1.52;0.55;;;;;;;18.39;48.79;101660.75;4966263;28;20023;-72
2024/03/16 07:38:59;;;;;;;2.03;0.63;;;;;;;18.48;48.70;101675.94;4968583;28;20058;-72
2024/03/16 07:41:24;;;;;;;2.15;0.57;;;;;;;18.52;48.46;101692.41;4967299;28;20478;-72
2024/03/16 07:43:50;;;;;;;1.58;0.60;;;;;;;18.53;48.28;101694.94;4968521;28;20376;-72
2024/03/16 07:46:15;;;;;;;1.77;0.60;;;;;;;18.54;48.40;101706.38;4967912;28;20023;-72
2024/03/16 07:48:41;;;;;;;3.85;0.82;;;;;;;18.40;48.52;101691.47;4968599;28;21173;-69
2024/03/16 07:51:06;;;;;;;2.30;0.60;;;;;;;18.47;48.77;101708.59;4967871;28;20066;-72
2024/03/16 07:53:32;;;;;;;1.75;0.50;;;;;;;18.49;48.75;101718.06;4968302;28;20035;-73
2024/03/16 07:55:58;;;;;;;1.50;0.50;;;;;;;18.52;48.89;101722.31;4966973;28;20547;-73
2024/03/16 07:58:26;;;;;;;2.15;0.50;;;;;;;18.51;49.05;101727.69;4968273;28;20511;-71
2024/03/16 08:00:52;;;;;;;0.98;0.50;;;;;;;18.55;48.95;101737.06;4966726;28;20077;-73
2024/03/16 08:03:18;;;;;;;2.70;0.60;;;;;;;18.51;48.92;101739.09;4967124;28;20416;-72
2024/03/16 08:05:47;;;;;;;2.70;0.43;;;;;;;18.56;49.21;101752.81;4967006;28;20077;-72
2024/03/16 08:08:12;;;;;;;2.10;0.60;;;;;;;18.59;49.21;101763.16;4967937;28;20042;-72
2024/03/16 08:10:38;;;;;;;2.00;0.73;;;;;;;18.59;49.06;101770.25;4968095;28;20039;-72
2024/03/16 08:13:03;;;;;;;2.17;0.70;;;;;;;18.59;49.11;101772.88;4968122;28;20035;-73
2024/03/16 08:15:28;;;;;;;2.33;0.60;;;;;;;18.44;49.04;101749.22;4966591;28;20468;-72
2024/03/16 08:17:56;;;;;;;3.28;0.80;;;;;;;18.52;49.02;101771.59;4968108;28;20118;-72
2024/03/16 08:20:22;;;;;;;1.63;0.57;;;;;;;18.44;48.90;101745.75;4968196;28;20081;-74
2024/03/16 08:22:56;;;;;;;2.50;0.85;;;;;;;18.53;48.88;101765.38;4968305;28;20473;-71
2024/03/16 08:25:21;;;;;;;1.70;0.55;;;;;;;18.55;48.89;101774.91;4967740;28;20533;-72
2024/03/16 08:27:47;;;;;;;3.45;0.60;;;;;;;18.56;49.11;101781.00;4968015;28;20078;-73
2024/03/16 08:30:12;;;;;;;1.50;0.57;;;;;;;18.54;48.81;101780.28;4967917;28;20110;-72
2024/03/16 08:32:37;;;;;;;2.35;0.80;;;;;;;18.46;48.80;101772.88;4967822;28;20034;-65
2024/03/16 08:35:04;;;;;;;2.65;0.52;;;;;;;18.48;49.01;101771.84;4968104;28;20030;-73
2024/03/16 08:37:30;;;;;;;1.95;0.50;;;;;;;18.54;48.89;101777.66;4967362;28;20026;-72
2024/03/16 08:39:55;;;;;;;1.58;0.50;;;;;;;18.56;48.68;101783.66;4967867;28;20499;-73
2024/03/16 08:42:21;;;;;;;1.85;0.50;;;;;;;18.54;48.67;101785.56;4967836;28;20074;-75
2024/03/16 08:44:46;;;;;;;12.13;1.00;;;;;;;18.46;48.92;101775.53;4967726;28;20030;-71
2024/03/16 08:47:11;;;;;;;2.05;0.50;;;;;;;18.51;48.98;101789.25;4967523;28;20372;-73
2024/03/16 08:49:37;;;;;;;3.77;0.63;;;;;;;18.58;48.73;101810.78;4967781;28;20031;-72
2024/03/16 08:52:03;;;;;;;4.63;1.10;;;;;;;18.47;49.06;101801.81;4967296;28;20261;-73
2024/03/16 08:54:29;;;;;;;2.30;0.70;;;;;;;18.59;48.97;101828.31;4967445;28;20110;-73
2024/03/16 08:56:55;;;;;;;3.97;0.70;;;;;;;18.56;48.89;101829.38;4967641;28;20023;-74
2024/03/16 08:59:20;;;;;;;3.40;1.20;;;;;;;18.58;48.93;101835.41;4967272;28;20046;-72
2024/03/16 09:01:45;;;;;;;3.15;0.80;;;;;;;18.58;49.09;101829.25;4967700;28;20030;-72
2024/03/16 09:04:12;;;;;;;4.43;0.90;;;;;;;18.46;48.90;101815.94;4971254;28;20065;-72
2024/03/16 09:06:40;;;;;;;2.63;0.80;;;;;;;18.55;49.00;101834.75;4971093;28;20035;-72
2024/03/16 09:09:10;;;;;;;3.50;0.93;;;;;;;18.60;48.85;101851.16;4971474;28;20164;-72
2024/03/16 09:11:35;;;;;;;2.50;0.75;;;;;;;18.60;48.98;101851.16;4970580;28;20379;-73
2024/03/16 09:14:01;;;;;;;2.67;0.68;;;;;;;18.50;48.79;101843.00;4971848;28;20042;-73
2024/03/16 09:16:27;;;;;;;2.95;0.70;;;;;;;18.57;48.66;101862.75;4971410;28;20027;-71
2024/03/16 09:18:53;;;;;;;2.70;0.75;;;;;;;18.55;48.76;101863.78;4970686;28;20083;-74
2024/03/16 09:21:18;;;;;;;2.97;0.70;;;;;;;18.58;49.02;101869.72;4969680;28;20031;-73
2024/03/16 09:23:43;;;;;;;1.65;0.60;;;;;;;18.53;49.05;101870.97;4967897;28;20039;-73
2024/03/16 09:26:09;;;;;;;2.23;0.53;;;;;;;18.59;48.70;101881.13;4970933;28;20047;-74
2024/03/16 09:28:34;;;;;;;2.17;0.70;;;;;;;18.49;48.82;101876.47;4970551;28;20277;-75
2024/03/16 09:31:04;;;;;;;2.17;0.85;;;;;;;18.56;48.79;101892.72;4971331;28;20041;-74
2024/03/16 09:33:29;;;;;;;3.67;0.75;;;;;;;18.48;48.69;101874.78;4968289;28;20046;-73
2024/03/16 09:35:54;;;;;;;2.08;0.70;;;;;;;18.49;48.75;101876.47;4970350;28;20375;-73
2024/03/16 09:38:20;;;;;;;2.95;0.70;;;;;;;18.53;48.56;101879.72;4970718;28;20030;-72
2024/03/16 09:40:51;;;;;;;2.97;0.85;;;;;;;18.46;48.52;101871.38;4970896;28;20038;-73
2024/03/16 09:43:17;;;;;;;4.50;0.80;;;;;;;18.59;48.45;101895.16;4970848;28;20027;-73
2024/03/16 09:45:45;;;;;;;1.80;0.65;;;;;;;18.50;48.64;101877.31;4969161;28;20023;-72
2024/03/16 09:48:11;;;;;;;5.53;1.23;;;;;;;18.50;48.85;101887.88;4970655;28;20038;-73
2024/03/16 09:50:47;;;;;;;1.77;0.50;;;;;;;18.63;49.03;101915.16;4969129;28;20038;-72
2024/03/16 09:53:32;;;;;;;1.60;0.60;;;;;;;18.62;49.05;101915.25;4970388;28;20086;-72
2024/03/16 09:56:04;;;;;;;2.75;0.68;;;;;;;18.51;48.95;101900.13;4970523;28;20027;-72
2024/03/16 09:58:34;;;;;;;2.25;0.60;;;;;;;18.61;48.94;101921.47;4970416;28;20483;-71
2024/03/16 10:01:03;;;;;;;4.80;1.08;;;;;;;18.68;49.02;101931.53;4970631;28;20538;-74
2024/03/16 10:03:30;;;;;;;1.30;0.50;;;;;;;18.63;48.85;101935.44;4968147;28;20027;-72
2024/03/16 10:06:07;;;;;;;1.60;0.75;;;;;;;18.67;49.14;101943.06;4970725;28;20030;-71
2024/03/16 10:08:33;;;;;;;2.72;0.52;;;;;;;18.57;49.04;101938.47;4970205;28;20057;-73
2024/03/16 10:11:12;;;;;;;1.85;0.52;;;;;;;18.55;49.26;101937.72;4970622;28;20468;-74
2024/03/16 10:13:39;;;;;;;1.38;0.50;;;;;;;18.63;49.20;101957.38;4969007;28;20502;-76
2024/03/16 10:16:11;;;;;;;2.65;0.60;;;;;;;18.63;49.11;101962.66;4969084;28;20030;-75
2024/03/16 10:18:36;;;;;;;2.72;0.65;;;;;;;18.30;48.82;101920.84;4970410;28;20106;-76
2024/03/16 10:21:03;;;;;;;1.77;0.60;;;;;;;18.62;48.61;101974.16;4970260;28;20119;-74
2024/03/16 10:23:31;;;;;;;6.13;0.82;;;;;;;18.59;48.49;101965.63;4970604;28;20087;-78
2024/03/16 10:25:57;;;;;;;2.42;0.77;;;;;;;18.54;48.40;101960.63;4969909;28;20026;-76
2024/03/16 10:28:24;;;;;;;2.65;0.80;;;;;;;18.61;48.36;101972.50;4970932;28;21024;-75
2024/03/16 10:30:49;;;;;;;4.13;0.73;;;;;;;18.65;48.52;101983.69;4970117;28;20061;-77
2024/03/16 10:33:18;;;;;;;2.00;0.60;;;;;;;18.58;48.27;101977.09;4969543;28;20061;-76
2024/03/16 10:35:44;;;;;;;3.25;0.88;;;;;;;18.60;48.23;101986.63;4969572;28;20034;-75
2024/03/16 10:38:14;;;;;;;3.22;0.75;;;;;;;18.53;48.36;101989.75;4969676;28;20057;-75
2024/03/16 10:40:40;;;;;;;1.70;0.55;;;;;;;18.51;48.44;101986.38;4970223;28;20085;-78
2024/03/16 10:43:12;;;;;;;4.55;0.90;;;;;;;18.46;48.39;101987.53;4969572;28;20034;-75
2024/03/16 10:45:39;;;;;;;2.60;0.70;;;;;;;18.49;48.24;101991.78;4969120;28;20053;-78
2024/03/16 10:48:10;;;;;;;2.65;0.70;;;;;;;18.47;48.24;101993.66;4970240;28;20491;-75
2024/03/16 10:50:36;;;;;;;3.80;0.80;;;;;;;18.62;48.15;102021.69;4969829;28;20126;-78
2024/03/16 10:53:03;;;;;;;2.70;0.60;;;;;;;18.58;48.17;102022.00;4969126;28;20243;-75
2024/03/16 10:55:29;;;;;;;2.75;0.65;;;;;;;18.53;48.00;102017.00;4968792;28;20053;-75
2024/03/16 10:57:55;;;;;;;3.17;0.70;;;;;;;18.47;48.01;102015.63;4969178;28;20043;-76
2024/03/16 11:00:20;;;;;;;2.42;0.90;;;;;;;18.63;48.05;102039.25;4969659;28;20468;-76
2024/03/16 11:03:07;;;;;;;2.38;0.80;;;;;;;18.62;48.12;102041.97;4968516;28;20034;-77
2024/03/16 11:05:36;;;;;;;3.53;0.80;;;;;;;18.60;48.21;102041.25;4967696;28;20046;-77
2024/03/16 11:08:11;;;;;;;3.67;0.70;;;;;;;18.65;48.17;102053.19;4969623;28;20069;-76
2024/03/16 11:10:42;;;;;;;3.20;0.70;;;;;;;18.56;48.32;102040.56;4969430;28;20363;-76
2024/03/16 11:13:15;;;;;;;2.22;0.68;;;;;;;18.63;48.33;102048.97;4969397;28;20129;-74
2024/03/16 11:15:41;;;;;;;2.70;0.65;;;;;;;18.51;48.29;102033.91;4969262;28;20034;-75
2024/03/16 11:18:39;;;;;;;3.13;0.63;;;;;;;18.66;48.21;102059.34;4968794;28;20030;-75
2024/03/16 11:21:14;;;;;;;2.80;0.50;;;;;;;18.54;48.13;102037.19;4968348;28;20087;-75